Wesley Hills, New York
Current Conditions -  °F | °C
As of 5:56 PM on Saturday 20 Dec 2014 (Local Time) from KHPN Reporting Station
Overcast Overcast  
Wind Chill: 30°   Ceiling: 2700
Heat Index: 30°   Visibility: 10mi
Dew Point: 20°   Wind: 3mph
Humidity: 66%   Direction: 360°N
Pressure: 30.26"   Gusts: NA
Location:  41.1194°N, 74.0479°W
Report Text: KHPN 202256Z 36003KT 10SM OVC027 M01/M07 A3026 RMK AO2 SLP256 T10111067
Loading
Personal Weather Stations






























Interactive Weather Map New forecast layout! Learn more

10-Day Weather Forecast

Advertisements
Track Severe Weather on mobile